createdAt,value
2023-04-15T00:01:11.913Z,101013.13
2023-04-15T00:03:39.170Z,101008.88
2023-04-15T00:06:06.237Z,101011.16
2023-04-15T00:08:33.307Z,101014.66
2023-04-15T00:11:03.237Z,101013.03
2023-04-15T00:13:29.993Z,101009.13
2023-04-15T00:15:56.698Z,101011.06
2023-04-15T00:18:24.703Z,101012.53
2023-04-15T00:20:51.288Z,101007.84
2023-04-15T00:23:18.103Z,101009.78
2023-04-15T00:25:45.017Z,101010.56
2023-04-15T00:28:11.742Z,101012.50
2023-04-15T00:30:39.050Z,101007.06
2023-04-15T00:33:05.806Z,101004.34
2023-04-15T00:35:33.791Z,101008.16
2023-04-15T00:38:00.662Z,101005.38
2023-04-15T00:40:27.891Z,101005.72
2023-04-15T00:42:54.591Z,101007.16
2023-04-15T00:45:21.360Z,101008.28
2023-04-15T00:47:48.022Z,101015.63
2023-04-15T00:50:14.634Z,101018.25
2023-04-15T00:52:41.621Z,101017.44
2023-04-15T00:55:08.904Z,101015.81
2023-04-15T00:57:36.514Z,101022.69
2023-04-15T01:00:04.882Z,101017.22
2023-04-15T01:02:32.671Z,101013.66
2023-04-15T01:04:59.671Z,101018.22
2023-04-15T01:07:26.393Z,101014.66
2023-04-15T01:09:53.180Z,101015.81
2023-04-15T01:12:20.667Z,101023.09
2023-04-15T01:14:47.345Z,101012.16
2023-04-15T01:17:14.536Z,101014.81
2023-04-15T01:19:42.421Z,101023.28
2023-04-15T01:22:09.268Z,101022.09
2023-04-15T01:24:37.661Z,101023.66
2023-04-15T01:27:05.474Z,101012.38
2023-04-15T01:29:33.405Z,101012.75
2023-04-15T01:32:00.343Z,101015.38
2023-04-15T01:34:27.234Z,101007.63
2023-04-15T01:36:53.871Z,101014.59
2023-04-15T01:39:20.494Z,101010.69
2023-04-15T01:41:47.480Z,101016.81
2023-04-15T01:44:14.156Z,101016.03
2023-04-15T01:46:41.208Z,101021.44
2023-04-15T01:49:07.864Z,101024.88
2023-04-15T01:51:34.516Z,101025.28
2023-04-15T01:54:01.569Z,101018.31
2023-04-15T01:56:29.508Z,101026.41
2023-04-15T01:58:56.290Z,101015.25
2023-04-15T02:01:23.097Z,101023.38
2023-04-15T02:03:49.958Z,101022.59
2023-04-15T02:06:16.759Z,101019.06
2023-04-15T02:08:43.378Z,101020.56
2023-04-15T02:11:10.146Z,101022.16
2023-04-15T02:13:37.006Z,101018.25
2023-04-15T02:16:04.050Z,101026.00
2023-04-15T02:18:30.853Z,101025.56
2023-04-15T02:20:58.696Z,101020.88
2023-04-15T02:23:25.769Z,101024.19
2023-04-15T02:25:53.553Z,101028.41
2023-04-15T02:28:21.606Z,101032.59
2023-04-15T02:30:52.954Z,101037.94
2023-04-15T02:33:25.978Z,101035.16
2023-04-15T02:35:53.304Z,101039.72
2023-04-15T02:38:19.946Z,101045.38
2023-04-15T02:40:46.643Z,101056.56
2023-04-15T02:43:13.362Z,101051.84
2023-04-15T02:45:40.005Z,101055.59
2023-04-15T02:48:06.759Z,101055.88
2023-04-15T02:50:33.602Z,101057.81
2023-04-15T02:53:01.785Z,101060.41
2023-04-15T02:55:29.035Z,101066.53
2023-04-15T02:57:55.899Z,101066.78
2023-04-15T03:00:25.426Z,101062.41
2023-04-15T03:02:56.790Z,101072.13
2023-04-15T03:05:29.438Z,101070.97
2023-04-15T03:07:56.188Z,101065.56
2023-04-15T03:10:23.086Z,101069.41
2023-04-15T03:12:49.735Z,101072.88
2023-04-15T03:15:16.795Z,101074.38
2023-04-15T03:17:43.529Z,101070.81
2023-04-15T03:20:10.492Z,101075.75
2023-04-15T03:22:37.141Z,101079.25
2023-04-15T03:25:04.032Z,101083.00
2023-04-15T03:27:30.712Z,101084.59
2023-04-15T03:29:57.419Z,101083.44
2023-04-15T03:32:24.224Z,101081.00
2023-04-15T03:34:50.825Z,101083.28
2023-04-15T03:37:17.445Z,101083.16
2023-04-15T03:39:44.049Z,101090.06
2023-04-15T03:42:11.119Z,101088.84
2023-04-15T03:44:38.487Z,101094.94
2023-04-15T03:47:05.137Z,101094.50
2023-04-15T03:49:31.766Z,101100.25
2023-04-15T03:51:58.411Z,101100.16
2023-04-15T03:54:25.058Z,101101.63
2023-04-15T03:56:52.614Z,101109.66
2023-04-15T03:59:19.218Z,101109.22
2023-04-15T04:01:45.978Z,101106.84
2023-04-15T04:04:12.751Z,101108.44
2023-04-15T04:06:39.602Z,101108.31
2023-04-15T04:09:06.432Z,101114.06
2023-04-15T04:11:33.138Z,101120.16
2023-04-15T04:14:01.852Z,101123.56
2023-04-15T04:16:28.566Z,101120.06
2023-04-15T04:18:55.330Z,101129.66
2023-04-15T04:21:22.000Z,101135.75
2023-04-15T04:23:48.644Z,101132.94
2023-04-15T04:26:15.229Z,101136.84
2023-04-15T04:28:42.104Z,101134.41
2023-04-15T04:31:08.799Z,101146.81
2023-04-15T04:33:35.542Z,101151.31
2023-04-15T04:36:02.097Z,101153.66
2023-04-15T04:38:28.730Z,101156.34
2023-04-15T04:40:55.427Z,101164.91
2023-04-15T04:43:22.100Z,101163.66
2023-04-15T04:45:48.837Z,101174.91
2023-04-15T04:48:15.545Z,101177.97
2023-04-15T04:50:42.342Z,101178.66
2023-04-15T04:53:09.020Z,101183.72
2023-04-15T04:55:37.111Z,101189.56
2023-04-15T04:58:03.715Z,101191.47
2023-04-15T05:00:30.573Z,101190.00
2023-04-15T05:03:09.688Z,101194.72
2023-04-15T05:05:39.441Z,101200.13
2023-04-15T05:08:06.035Z,101202.03
2023-04-15T05:10:32.682Z,101211.81
2023-04-15T05:12:59.410Z,101210.34
2023-04-15T05:15:26.041Z,101213.03
2023-04-15T05:17:52.718Z,101223.97
2023-04-15T05:20:20.037Z,101223.59
2023-04-15T05:22:46.665Z,101226.41
2023-04-15T05:25:13.814Z,101229.13
2023-04-15T05:27:40.552Z,101227.53
2023-04-15T05:30:07.849Z,101239.22
2023-04-15T05:32:34.520Z,101245.88
2023-04-15T05:35:01.226Z,101245.28
2023-04-15T05:37:43.521Z,101251.94
2023-04-15T05:40:10.796Z,101257.44
2023-04-15T05:42:38.736Z,101257.53
2023-04-15T05:45:14.793Z,101266.53
2023-04-15T05:47:47.346Z,101262.69
2023-04-15T05:50:13.946Z,101270.47
2023-04-15T05:52:40.726Z,101277.09
2023-04-15T05:55:07.792Z,101277.63
2023-04-15T05:57:34.459Z,101281.47
2023-04-15T06:00:01.003Z,101288.81
2023-04-15T06:02:28.016Z,101283.72
2023-04-15T06:04:54.877Z,101281.72
2023-04-15T06:07:21.612Z,101289.03
2023-04-15T06:09:48.701Z,101289.03
2023-04-15T06:12:17.787Z,101291.41
2023-04-15T06:14:44.470Z,101310.00
2023-04-15T06:17:11.376Z,101307.03
2023-04-15T06:19:38.136Z,101312.09
2023-04-15T06:22:07.897Z,101325.03
2023-04-15T06:24:37.062Z,101316.69
2023-04-15T06:27:03.849Z,101313.38
2023-04-15T06:29:30.703Z,101324.50
2023-04-15T06:31:59.237Z,101326.94
2023-04-15T06:34:25.889Z,101337.63
2023-04-15T06:36:53.629Z,101339.84
2023-04-15T06:39:20.323Z,101334.34
2023-04-15T06:41:47.388Z,101333.16
2023-04-15T06:44:14.070Z,101340.66
2023-04-15T06:46:40.757Z,101347.91
2023-04-15T06:49:09.471Z,101352.66
2023-04-15T06:51:36.761Z,101362.88
2023-04-15T06:54:06.197Z,101368.03
2023-04-15T06:56:33.654Z,101369.41
2023-04-15T06:59:00.497Z,101381.22
2023-04-15T07:01:27.720Z,101378.53
2023-04-15T07:03:55.709Z,101380.78
2023-04-15T07:06:22.463Z,101385.84
2023-04-15T07:09:01.897Z,101390.88
2023-04-15T07:11:28.935Z,101389.72
2023-04-15T07:13:55.598Z,101391.75
2023-04-15T07:16:22.806Z,101397.22
2023-04-15T07:21:36.391Z,101408.22
2023-04-15T07:24:03.123Z,101416.44
2023-04-15T07:26:29.865Z,101416.25
2023-04-15T07:28:56.593Z,101418.97
2023-04-15T07:34:46.231Z,101428.69
2023-04-15T07:37:55.710Z,101431.31
2023-04-15T07:40:22.482Z,101433.03
2023-04-15T07:42:52.556Z,101434.59
2023-04-15T07:46:16.981Z,101436.34
2023-04-15T07:48:45.425Z,101439.69
2023-04-15T07:59:20.034Z,101451.22
2023-04-15T08:08:37.323Z,101463.28
2023-04-15T08:11:31.698Z,101462.50
2023-04-15T08:14:06.854Z,101472.72
2023-04-15T08:31:54.616Z,101483.38
2023-04-15T08:34:24.566Z,101486.28
2023-04-15T08:36:58.329Z,101495.53
2023-04-15T08:50:05.294Z,101513.97
2023-04-15T09:06:07.909Z,101542.53
2023-04-15T09:08:46.320Z,101541.81
2023-04-15T09:14:40.840Z,101556.56
2023-04-15T09:17:14.475Z,101558.28
2023-04-15T09:19:41.144Z,101562.25
2023-04-15T09:22:10.871Z,101557.97
2023-04-15T09:24:39.622Z,101567.53
2023-04-15T09:27:11.698Z,101572.78
2023-04-15T09:36:57.485Z,101583.00
2023-04-15T09:39:26.657Z,101580.78
2023-04-15T09:42:50.335Z,101579.75
2023-04-15T09:45:17.028Z,101582.59
2023-04-15T09:47:43.931Z,101577.47
2023-04-15T09:50:13.178Z,101577.97
2023-04-15T09:52:43.923Z,101588.53
2023-04-15T09:55:11.800Z,101586.28
2023-04-15T09:57:41.178Z,101592.97
2023-04-15T10:00:11.134Z,101593.47
2023-04-15T10:02:39.991Z,101596.22
2023-04-15T10:05:07.683Z,101606.75
2023-04-15T10:07:35.199Z,101604.88
2023-04-15T10:10:03.735Z,101606.91
2023-04-15T10:12:31.804Z,101605.84
2023-04-15T10:15:03.752Z,101609.19
2023-04-15T10:17:38.240Z,101627.00
2023-04-15T10:20:05.923Z,101612.28
2023-04-15T10:22:33.410Z,101617.69
2023-04-15T10:25:02.189Z,101623.19
2023-04-15T10:27:29.245Z,101614.59
2023-04-15T10:29:56.951Z,101613.88
2023-04-15T10:32:25.560Z,101622.28
2023-04-15T10:34:54.727Z,101611.97
2023-04-15T10:37:33.497Z,101623.38
2023-04-15T10:40:00.061Z,101625.59
2023-04-15T10:42:34.322Z,101637.25
2023-04-15T10:45:00.866Z,101617.63
2023-04-15T10:47:28.586Z,101629.06
2023-04-15T10:50:01.155Z,101635.16
2023-04-15T10:52:29.495Z,101638.81
2023-04-15T10:55:12.283Z,101639.28
2023-04-15T10:57:40.057Z,101645.84
2023-04-15T11:00:13.738Z,101654.38
2023-04-15T11:02:47.361Z,101655.63
2023-04-15T11:05:15.589Z,101653.72
2023-04-15T11:07:47.003Z,101648.22
2023-04-15T11:10:13.584Z,101650.50
2023-04-15T11:12:41.236Z,101654.19
2023-04-15T11:15:30.653Z,101658.94
2023-04-15T11:17:58.950Z,101651.69
2023-04-15T11:20:26.387Z,101670.94
2023-04-15T11:23:14.442Z,101664.63
2023-04-15T11:25:41.906Z,101663.06
2023-04-15T11:28:08.610Z,101658.81
2023-04-15T11:30:37.459Z,101666.59
2023-04-15T11:33:06.504Z,101668.91
2023-04-15T11:35:33.604Z,101675.97
2023-04-15T11:38:05.356Z,101667.34
2023-04-15T11:40:33.565Z,101663.56
2023-04-15T11:43:08.888Z,101669.13
2023-04-15T11:45:37.124Z,101669.47
2023-04-15T11:48:11.576Z,101679.94
2023-04-15T11:50:40.903Z,101686.78
2023-04-15T11:53:10.466Z,101675.91
2023-04-15T11:55:44.111Z,101693.16
2023-04-15T11:58:16.644Z,101685.78
2023-04-15T12:00:50.882Z,101679.56
2023-04-15T12:03:27.606Z,101707.44
2023-04-15T12:06:19.922Z,101697.69
2023-04-15T12:08:51.222Z,101704.28
2023-04-15T12:11:18.077Z,101701.94
2023-04-15T12:13:47.210Z,101718.41
2023-04-15T12:16:17.297Z,101718.91
2023-04-15T12:18:47.659Z,101729.50
2023-04-15T12:21:14.403Z,101730.28
2023-04-15T12:23:50.929Z,101730.50
2023-04-15T12:26:18.352Z,101721.88
2023-04-15T12:28:44.977Z,101725.28
2023-04-15T12:31:13.414Z,101730.34
2023-04-15T12:33:40.504Z,101726.38
2023-04-15T12:36:07.234Z,101734.34
2023-04-15T12:38:33.840Z,101735.72
2023-04-15T12:41:00.485Z,101749.19
2023-04-15T12:43:27.737Z,101743.41
2023-04-15T12:45:54.556Z,101750.81
2023-04-15T12:48:21.519Z,101754.41
2023-04-15T12:50:48.108Z,101750.00
2023-04-15T12:53:14.969Z,101756.91
2023-04-15T12:55:41.876Z,101753.66
2023-04-15T12:58:08.613Z,101763.88
2023-04-15T13:03:20.078Z,101778.50
2023-04-15T13:05:46.687Z,101768.41
2023-04-15T13:08:16.569Z,101774.63
2023-04-15T13:10:43.505Z,101780.31
2023-04-15T13:13:12.484Z,101781.88
2023-04-15T13:18:31.217Z,101788.03
2023-04-15T13:21:23.307Z,101798.75
2023-04-15T13:23:51.248Z,101792.75
2023-04-15T13:26:23.516Z,101794.66
2023-04-15T13:28:50.314Z,101800.13
2023-04-15T13:31:18.420Z,101812.22
2023-04-15T13:33:47.890Z,101808.59
2023-04-15T13:36:14.621Z,101817.13
2023-04-15T13:38:44.101Z,101819.38
2023-04-15T13:41:10.939Z,101818.88
2023-04-15T13:43:40.776Z,101834.81
2023-04-15T13:46:07.545Z,101821.44
2023-04-15T13:48:34.237Z,101830.88
2023-04-15T13:52:02.684Z,101835.06
2023-04-15T13:54:37.156Z,101829.59
2023-04-15T13:57:10.327Z,101841.72
2023-04-15T13:59:36.982Z,101834.66
2023-04-15T14:02:04.832Z,101842.47
2023-04-15T14:04:34.217Z,101840.47
2023-04-15T14:07:05.336Z,101836.09
2023-04-15T14:10:03.670Z,101838.69
2023-04-15T14:12:34.293Z,101849.22
2023-04-15T14:15:29.120Z,101854.22
2023-04-15T14:17:56.012Z,101863.19
2023-04-15T14:20:22.739Z,101858.16
2023-04-15T14:23:14.652Z,101872.66
2023-04-15T14:25:40.073Z,101879.34
2023-04-15T14:28:06.834Z,101882.72
2023-04-15T14:30:36.090Z,101888.69
2023-04-15T14:33:02.964Z,101890.44
2023-04-15T14:35:49.871Z,101888.84
2023-04-15T14:39:12.975Z,101901.03
2023-04-15T14:41:30.823Z,101890.22
2023-04-15T14:43:57.625Z,101896.25
2023-04-15T14:46:25.529Z,101898.31
2023-04-15T14:48:55.943Z,101895.09
2023-04-15T14:51:24.381Z,101898.66
2023-04-15T14:53:51.213Z,101906.84
2023-04-15T14:56:20.005Z,101916.47
2023-04-15T14:58:49.432Z,101927.03
2023-04-15T15:01:16.263Z,101927.22
2023-04-15T15:04:05.442Z,101936.47
2023-04-15T15:06:34.745Z,101930.75
2023-04-15T15:09:02.172Z,101932.25
2023-04-15T15:11:29.721Z,101940.19
2023-04-15T15:13:59.424Z,101943.16
2023-04-15T15:16:26.380Z,101949.50
2023-04-15T15:18:53.177Z,101944.34
2023-04-15T15:21:19.818Z,101959.09
2023-04-15T15:23:48.546Z,101959.78
2023-04-15T15:26:15.804Z,101965.91
2023-04-15T15:29:05.161Z,101954.16
2023-04-15T15:31:31.870Z,101971.41
2023-04-15T15:33:58.659Z,101971.69
2023-04-15T15:36:29.106Z,101970.38
2023-04-15T15:39:00.076Z,101972.69
2023-04-15T15:41:26.749Z,101974.81
2023-04-15T15:43:56.200Z,101973.94
2023-04-15T15:46:24.295Z,101979.22
2023-04-15T15:48:51.044Z,101975.50
2023-04-15T15:51:17.787Z,101983.22
2023-04-15T15:53:45.954Z,101978.59
2023-04-15T15:56:12.629Z,101983.31
2023-04-15T15:58:39.267Z,101980.28
2023-04-15T16:01:06.105Z,101980.28
2023-04-15T16:03:32.973Z,101986.50
2023-04-15T16:05:59.847Z,101994.53
2023-04-15T16:08:26.733Z,101996.47
2023-04-15T16:10:53.516Z,101997.63
2023-04-15T16:13:20.458Z,102008.84
2023-04-15T16:15:47.091Z,102007.25
2023-04-15T16:18:13.702Z,102011.84
2023-04-15T16:20:42.152Z,102014.91
2023-04-15T16:23:18.488Z,102019.31
2023-04-15T16:25:48.207Z,102016.41
2023-04-15T16:28:25.546Z,102019.63
2023-04-15T16:30:53.788Z,102016.69
2023-04-15T16:33:20.462Z,102022.34
2023-04-15T16:35:47.147Z,102033.75
2023-04-15T16:38:17.150Z,102039.09
2023-04-15T16:40:43.888Z,102034.59
2023-04-15T16:43:11.603Z,102042.63
2023-04-15T16:45:38.618Z,102045.34
2023-04-15T16:48:05.840Z,102047.88
2023-04-15T16:50:32.825Z,102037.59
2023-04-15T16:53:00.703Z,102046.09
2023-04-15T16:55:37.748Z,102054.34
2023-04-15T16:58:05.958Z,102054.94
2023-04-15T17:00:41.429Z,102055.06
2023-04-15T17:03:08.214Z,102058.22
2023-04-15T17:05:35.085Z,102055.53
2023-04-15T17:08:01.742Z,102062.50
2023-04-15T17:10:28.655Z,102065.22
2023-04-15T17:12:58.637Z,102055.06
2023-04-15T17:15:26.171Z,102063.09
2023-04-15T17:17:53.268Z,102059.59
2023-04-15T17:20:21.498Z,102063.47
2023-04-15T17:22:48.699Z,102063.00
2023-04-15T17:25:16.028Z,102073.63
2023-04-15T17:27:42.769Z,102076.91
2023-04-15T17:30:10.181Z,102087.88
2023-04-15T17:32:37.276Z,102083.56
2023-04-15T17:35:06.570Z,102086.53
2023-04-15T17:37:34.231Z,102084.81
2023-04-15T17:40:08.655Z,102077.38
2023-04-15T17:42:35.610Z,102087.44
2023-04-15T17:45:05.931Z,102081.69
2023-04-15T17:47:32.595Z,102089.72
2023-04-15T17:49:59.402Z,102093.22
2023-04-15T17:55:22.121Z,102108.50
2023-04-15T17:57:50.272Z,102122.75
2023-04-15T18:00:17.127Z,102104.44
2023-04-15T18:03:00.686Z,102109.41
2023-04-15T18:05:27.521Z,102113.50
2023-04-15T18:13:15.602Z,102127.97
2023-04-15T18:15:47.201Z,102133.72
2023-04-15T18:18:14.274Z,102129.00
2023-04-15T18:20:40.970Z,102130.78
2023-04-15T18:23:07.738Z,102126.59
2023-04-15T18:25:34.395Z,102125.81
2023-04-15T18:28:02.213Z,102136.09
2023-04-15T18:30:28.856Z,102138.94
2023-04-15T18:32:55.795Z,102136.13
2023-04-15T18:35:36.055Z,102139.16
2023-04-15T18:38:02.898Z,102147.44
2023-04-15T18:40:41.795Z,102145.13
2023-04-15T18:43:09.509Z,102150.13
2023-04-15T18:45:37.672Z,102153.28
2023-04-15T18:48:30.508Z,102162.56
2023-04-15T18:51:01.725Z,102155.13
2023-04-15T18:53:37.060Z,102159.63
2023-04-15T18:56:18.574Z,102166.41
2023-04-15T18:59:09.716Z,102162.56
2023-04-15T19:01:41.237Z,102167.19
2023-04-15T19:04:08.199Z,102176.34
2023-04-15T19:06:42.458Z,102182.44
2023-04-15T19:11:52.131Z,102185.72
2023-04-15T19:14:19.134Z,102177.91
2023-04-15T19:16:45.855Z,102193.53
2023-04-15T19:19:14.735Z,102173.38
2023-04-15T19:22:00.760Z,102189.22
2023-04-15T19:24:27.597Z,102178.22
2023-04-15T19:27:07.358Z,102191.34
2023-04-15T19:32:16.076Z,102199.81
2023-04-15T19:34:45.399Z,102201.28
2023-04-15T19:40:15.964Z,102199.22
2023-04-15T19:42:43.808Z,102199.22
2023-04-15T19:45:22.770Z,102205.47
2023-04-15T19:48:06.564Z,102194.25
2023-04-15T19:51:02.958Z,102203.19
2023-04-15T19:53:30.975Z,102208.50
2023-04-15T19:56:07.114Z,102216.75
2023-04-15T19:58:46.973Z,102214.41
2023-04-15T20:01:13.639Z,102208.97
2023-04-15T20:06:46.780Z,102219.03
2023-04-15T20:09:13.520Z,102220.94
2023-04-15T20:14:25.254Z,102211.31
2023-04-15T20:16:55.437Z,102214.03
2023-04-15T20:19:22.091Z,102205.47
2023-04-15T20:21:50.797Z,102209.28
2023-04-15T20:27:39.945Z,102213.47
2023-04-15T20:30:20.747Z,102222.41
2023-04-15T20:35:55.071Z,102222.19
2023-04-15T20:38:49.486Z,102226.16
2023-04-15T20:41:16.172Z,102214.31
2023-04-15T20:43:43.895Z,102222.09
2023-04-15T20:46:20.562Z,102212.38
2023-04-15T20:48:48.499Z,102218.50
2023-04-15T20:51:15.441Z,102229.78
2023-04-15T20:53:42.194Z,102224.81
2023-04-15T20:56:13.463Z,102225.94
2023-04-15T20:58:40.047Z,102218.03
2023-04-15T21:01:22.079Z,102221.41
2023-04-15T21:03:48.955Z,102226.03
2023-04-15T21:06:17.848Z,102237.34
2023-04-15T21:08:45.578Z,102228.53
2023-04-15T21:11:36.579Z,102236.34
2023-04-15T21:14:08.561Z,102233.50
2023-04-15T21:17:08.446Z,102236.88
2023-04-15T21:19:38.798Z,102249.97
2023-04-15T21:22:05.376Z,102245.56
2023-04-15T21:24:32.001Z,102244.31
2023-04-15T21:26:58.603Z,102246.34
2023-04-15T21:29:40.358Z,102245.22
2023-04-15T21:32:07.275Z,102243.31
2023-04-15T21:34:34.183Z,102252.13
2023-04-15T21:37:01.024Z,102250.84
2023-04-15T21:39:27.797Z,102253.91
2023-04-15T21:41:54.452Z,102247.81
2023-04-15T21:44:21.103Z,102250.19
2023-04-15T21:46:47.741Z,102249.28
2023-04-15T21:49:14.437Z,102250.84
2023-04-15T21:51:41.217Z,102254.22
2023-04-15T21:54:07.969Z,102251.53
2023-04-15T21:56:34.640Z,102254.69
2023-04-15T21:59:01.549Z,102257.41
2023-04-15T22:01:37.560Z,102260.91
2023-04-15T22:04:06.143Z,102268.94
2023-04-15T22:06:35.572Z,102268.47
2023-04-15T22:09:14.648Z,102273.06
2023-04-15T22:11:41.367Z,102274.53
2023-04-15T22:14:13.837Z,102278.66
2023-04-15T22:16:40.491Z,102274.81
2023-04-15T22:19:07.588Z,102281.03
2023-04-15T22:21:39.459Z,102283.28
2023-04-15T22:24:32.721Z,102280.69
2023-04-15T22:27:04.258Z,102280.25
2023-04-15T22:29:30.960Z,102276.41
2023-04-15T22:31:57.984Z,102276.41
2023-04-15T22:34:24.724Z,102284.53
2023-04-15T22:36:55.135Z,102283.41
2023-04-15T22:39:21.719Z,102286.00
2023-04-15T22:41:48.526Z,102286.00
2023-04-15T22:44:27.652Z,102286.91
2023-04-15T22:46:54.717Z,102288.97
2023-04-15T22:49:21.546Z,102286.09
2023-04-15T22:51:48.163Z,102295.84
2023-04-15T22:54:16.080Z,102288.63
2023-04-15T22:56:42.711Z,102296.31
2023-04-15T22:59:09.476Z,102299.81
2023-04-15T23:01:36.291Z,102305.25
2023-04-15T23:04:08.251Z,102305.56
2023-04-15T23:06:35.645Z,102307.81
2023-04-15T23:09:22.677Z,102308.09
2023-04-15T23:11:49.801Z,102313.16
2023-04-15T23:14:16.716Z,102304.25
2023-04-15T23:16:48.450Z,102305.38
2023-04-15T23:19:15.075Z,102307.75
2023-04-15T23:21:41.760Z,102314.97
2023-04-15T23:24:08.411Z,102314.16
2023-04-15T23:26:35.018Z,102319.41
2023-04-15T23:29:01.738Z,102318.59
2023-04-15T23:31:30.893Z,102320.06
2023-04-15T23:33:57.581Z,102320.72
2023-04-15T23:36:24.380Z,102317.69
2023-04-15T23:38:51.036Z,102321.50
2023-04-15T23:41:17.728Z,102319.59
2023-04-15T23:43:44.368Z,102323.13
2023-04-15T23:46:11.956Z,102332.16
2023-04-15T23:48:38.848Z,102332.63
2023-04-15T23:51:05.966Z,102327.06
2023-04-15T23:53:33.372Z,102332.81
2023-04-15T23:56:00.032Z,102329.31
2023-04-15T23:58:28.940Z,102338.72
